Pagina principale
METAR-TAF:

METAR-TAF

Aeroporti :

Cranfield, Inghilterra

latitudine: 52-04N, longitudine: 000-37W, altezza: 111 m

Osservazione

Il bollettino è stato emesso 5 ore e 46 minuti fa, alle 16:20 UTC
Vento 12 kt da ovest/nord-ovest
Temperature 8°C
Umidità 49%
Pressione 1019 hPa
Visibilità 10 km o più
Poco nuvoloso ad un'altezza di 4000 ft

METAR: EGTC 231620Z 30012KT 9999 FEW040 08/M02 Q1019

Ora: 22:06 (22:06 UTC)

Previsione

Il bollettino è stato emesso 7 ore e 51 minuti fa, alle 14:15 UTC
Previsione valida dal 23 alle 15 UTC al 23 alle 18 UTC
Vento 15 kt da ovest con raffiche fino a 25 kt
Visibilità 10 km o più
Nubi sparse ad un'altezza di 2500 ft
Evoluzione graduale
dal 23 alle 15 UTC al 23 alle 18 UTC
Vento 10 kt da ovest

TAF: EGTC 231415Z 2315/2318 28015G25KT 9999 SCT025 BECMG 2315/2318 28010KT

Osservazioni e previsioni meteorologiche di più di 4000 aeroporti (messaggi METAR e TAF).

Le stazioni disponibili sono rappresentate dai dischi gialli e rossi sulla carta.

Puntare il mouse per vedere il nome della stazione.

Clicca sopra per visualizzare le osservazioni e previsioni meteorologiche.

Per cambiare la mappa : fare clic sui pulsanti verdi con una croce nera per ingrandire, il pulsante verde con un trattino per diminuire, o sulla freccia verde per le mappe adiacenti.


METAR-TAF: